sensor_id;sensor_type;location;lat;lon;timestamp;P1;durP1;ratioP1;P2;durP2;ratioP2
11127;SDS011;5618;51.028;5.234;2022-07-29T00:00:01;0.95;;;0.95;;
11127;SDS011;5618;51.028;5.234;2022-07-29T00:02:27;1.30;;;1.10;;
11127;SDS011;5618;51.028;5.234;2022-07-29T00:04:53;1.98;;;1.10;;
11127;SDS011;5618;51.028;5.234;2022-07-29T00:07:19;1.58;;;0.90;;
11127;SDS011;5618;51.028;5.234;2022-07-29T00:09:45;1.55;;;1.00;;
11127;SDS011;5618;51.028;5.234;2022-07-29T00:12:11;2.50;;;1.00;;
11127;SDS011;5618;51.028;5.234;2022-07-29T00:14:36;2.55;;;1.20;;
11127;SDS011;5618;51.028;5.234;2022-07-29T00:17:02;2.58;;;0.85;;
11127;SDS011;5618;51.028;5.234;2022-07-29T00:19:28;2.90;;;1.13;;
11127;SDS011;5618;51.028;5.234;2022-07-29T00:21:54;2.10;;;1.00;;
11127;SDS011;5618;51.028;5.234;2022-07-29T00:24:19;1.35;;;1.17;;
11127;SDS011;5618;51.028;5.234;2022-07-29T00:26:45;1.10;;;1.10;;
11127;SDS011;5618;51.028;5.234;2022-07-29T00:29:11;3.35;;;1.25;;
11127;SDS011;5618;51.028;5.234;2022-07-29T00:31:36;1.98;;;1.20;;
11127;SDS011;5618;51.028;5.234;2022-07-29T00:34:02;2.22;;;1.00;;
11127;SDS011;5618;51.028;5.234;2022-07-29T00:36:28;2.80;;;1.42;;
11127;SDS011;5618;51.028;5.234;2022-07-29T00:38:53;2.22;;;1.30;;
11127;SDS011;5618;51.028;5.234;2022-07-29T00:41:19;1.63;;;1.25;;
11127;SDS011;5618;51.028;5.234;2022-07-29T00:43:45;2.17;;;1.67;;
11127;SDS011;5618;51.028;5.234;2022-07-29T00:46:11;1.75;;;1.20;;
11127;SDS011;5618;51.028;5.234;2022-07-29T00:48:37;2.50;;;1.08;;
11127;SDS011;5618;51.028;5.234;2022-07-29T00:51:04;1.05;;;1.02;;
11127;SDS011;5618;51.028;5.234;2022-07-29T00:53:32;9.57;;;1.30;;
11127;SDS011;5618;51.028;5.234;2022-07-29T00:55:59;1.75;;;1.02;;
11127;SDS011;5618;51.028;5.234;2022-07-29T00:58:24;3.90;;;1.60;;
11127;SDS011;5618;51.028;5.234;2022-07-29T01:00:52;2.50;;;1.58;;
11127;SDS011;5618;51.028;5.234;2022-07-29T01:03:18;6.00;;;1.30;;
11127;SDS011;5618;51.028;5.234;2022-07-29T01:05:44;2.00;;;1.10;;
11127;SDS011;5618;51.028;5.234;2022-07-29T01:08:11;1.50;;;1.40;;
11127;SDS011;5618;51.028;5.234;2022-07-29T01:10:38;2.63;;;1.58;;
11127;SDS011;5618;51.028;5.234;2022-07-29T01:13:05;1.38;;;0.98;;
11127;SDS011;5618;51.028;5.234;2022-07-29T01:15:33;4.65;;;1.33;;
11127;SDS011;5618;51.028;5.234;2022-07-29T01:18:07;6.85;;;1.38;;
11127;SDS011;5618;51.028;5.234;2022-07-29T01:32:01;2.35;;;1.50;;
11127;SDS011;5618;51.028;5.234;2022-07-29T01:34:34;2.17;;;1.42;;
11127;SDS011;5618;51.028;5.234;2022-07-29T01:39:47;1.42;;;1.33;;
11127;SDS011;5618;51.028;5.234;2022-07-29T01:45:27;1.15;;;1.05;;
11127;SDS011;5618;51.028;5.234;2022-07-29T01:48:10;2.03;;;1.30;;
11127;SDS011;5618;51.028;5.234;2022-07-29T01:50:45;3.90;;;1.30;;
11127;SDS011;5618;51.028;5.234;2022-07-29T01:53:14;4.15;;;1.33;;
11127;SDS011;5618;51.028;5.234;2022-07-29T01:55:51;2.75;;;1.45;;
11127;SDS011;5618;51.028;5.234;2022-07-29T01:58:19;2.33;;;1.10;;
11127;SDS011;5618;51.028;5.234;2022-07-29T02:00:46;2.63;;;1.40;;
11127;SDS011;5618;51.028;5.234;2022-07-29T02:03:14;3.17;;;1.55;;
11127;SDS011;5618;51.028;5.234;2022-07-29T02:05:42;1.60;;;1.30;;
11127;SDS011;5618;51.028;5.234;2022-07-29T02:08:11;2.78;;;1.33;;
11127;SDS011;5618;51.028;5.234;2022-07-29T02:10:40;3.03;;;1.05;;
11127;SDS011;5618;51.028;5.234;2022-07-29T02:13:08;3.60;;;1.58;;
11127;SDS011;5618;51.028;5.234;2022-07-29T02:15:36;1.25;;;1.20;;
11127;SDS011;5618;51.028;5.234;2022-07-29T02:18:06;3.55;;;1.30;;
11127;SDS011;5618;51.028;5.234;2022-07-29T02:20:36;2.20;;;1.60;;
11127;SDS011;5618;51.028;5.234;2022-07-29T02:23:05;1.40;;;1.30;;
11127;SDS011;5618;51.028;5.234;2022-07-29T02:25:32;1.75;;;1.63;;
11127;SDS011;5618;51.028;5.234;2022-07-29T02:27:58;1.58;;;1.25;;
11127;SDS011;5618;51.028;5.234;2022-07-29T02:30:25;2.80;;;1.73;;
11127;SDS011;5618;51.028;5.234;2022-07-29T02:32:53;3.33;;;1.83;;
11127;SDS011;5618;51.028;5.234;2022-07-29T02:35:19;2.67;;;1.80;;
11127;SDS011;5618;51.028;5.234;2022-07-29T02:37:47;3.58;;;1.38;;
11127;SDS011;5618;51.028;5.234;2022-07-29T02:40:34;2.05;;;1.73;;
11127;SDS011;5618;51.028;5.234;2022-07-29T02:43:03;3.20;;;1.73;;
11127;SDS011;5618;51.028;5.234;2022-07-29T02:45:32;1.08;;;1.00;;
11127;SDS011;5618;51.028;5.234;2022-07-29T02:47:58;3.83;;;1.88;;
11127;SDS011;5618;51.028;5.234;2022-07-29T02:50:31;6.13;;;1.63;;
11127;SDS011;5618;51.028;5.234;2022-07-29T02:53:07;1.42;;;1.33;;
11127;SDS011;5618;51.028;5.234;2022-07-29T02:55:37;3.45;;;1.67;;
11127;SDS011;5618;51.028;5.234;2022-07-29T03:00:38;2.58;;;1.50;;
11127;SDS011;5618;51.028;5.234;2022-07-29T03:03:07;1.85;;;1.25;;
11127;SDS011;5618;51.028;5.234;2022-07-29T03:05:37;1.27;;;1.25;;
11127;SDS011;5618;51.028;5.234;2022-07-29T03:08:04;2.80;;;1.65;;
11127;SDS011;5618;51.028;5.234;2022-07-29T03:10:31;1.50;;;1.33;;
11127;SDS011;5618;51.028;5.234;2022-07-29T03:12:58;2.95;;;1.50;;
11127;SDS011;5618;51.028;5.234;2022-07-29T03:15:26;1.60;;;1.50;;
11127;SDS011;5618;51.028;5.234;2022-07-29T03:17:52;2.28;;;1.77;;
11127;SDS011;5618;51.028;5.234;2022-07-29T03:20:18;3.08;;;1.80;;
11127;SDS011;5618;51.028;5.234;2022-07-29T03:22:45;2.60;;;1.70;;
11127;SDS011;5618;51.028;5.234;2022-07-29T03:25:14;2.10;;;1.52;;
11127;SDS011;5618;51.028;5.234;2022-07-29T03:27:41;2.88;;;1.75;;
11127;SDS011;5618;51.028;5.234;2022-07-29T03:30:07;3.47;;;1.92;;
11127;SDS011;5618;51.028;5.234;2022-07-29T03:32:34;1.70;;;1.60;;
11127;SDS011;5618;51.028;5.234;2022-07-29T03:35:00;3.78;;;1.90;;
11127;SDS011;5618;51.028;5.234;2022-07-29T03:37:28;2.60;;;1.52;;
11127;SDS011;5618;51.028;5.234;2022-07-29T03:39:58;3.83;;;1.63;;
11127;SDS011;5618;51.028;5.234;2022-07-29T03:42:25;1.65;;;1.45;;
11127;SDS011;5618;51.028;5.234;2022-07-29T03:44:55;1.48;;;1.40;;
11127;SDS011;5618;51.028;5.234;2022-07-29T03:47:24;1.60;;;1.50;;
11127;SDS011;5618;51.028;5.234;2022-07-29T03:49:52;1.70;;;1.40;;
11127;SDS011;5618;51.028;5.234;2022-07-29T03:52:21;2.33;;;1.50;;
11127;SDS011;5618;51.028;5.234;2022-07-29T03:54:47;2.20;;;1.98;;
11127;SDS011;5618;51.028;5.234;2022-07-29T03:57:14;2.65;;;1.73;;
11127;SDS011;5618;51.028;5.234;2022-07-29T03:59:41;2.22;;;1.77;;
11127;SDS011;5618;51.028;5.234;2022-07-29T04:02:08;2.38;;;1.80;;
11127;SDS011;5618;51.028;5.234;2022-07-29T04:04:35;3.92;;;1.80;;
11127;SDS011;5618;51.028;5.234;2022-07-29T04:07:01;3.35;;;1.55;;
11127;SDS011;5618;51.028;5.234;2022-07-29T04:09:27;2.50;;;1.58;;
11127;SDS011;5618;51.028;5.234;2022-07-29T04:11:53;1.50;;;1.40;;
11127;SDS011;5618;51.028;5.234;2022-07-29T04:14:19;2.95;;;1.60;;
11127;SDS011;5618;51.028;5.234;2022-07-29T04:16:45;1.60;;;1.30;;
11127;SDS011;5618;51.028;5.234;2022-07-29T04:19:11;2.67;;;1.45;;
11127;SDS011;5618;51.028;5.234;2022-07-29T04:21:38;1.40;;;1.30;;
11127;SDS011;5618;51.028;5.234;2022-07-29T04:24:04;1.60;;;1.38;;
11127;SDS011;5618;51.028;5.234;2022-07-29T04:26:31;2.70;;;1.55;;
11127;SDS011;5618;51.028;5.234;2022-07-29T04:28:56;1.50;;;1.38;;
11127;SDS011;5618;51.028;5.234;2022-07-29T04:31:22;4.43;;;1.52;;
11127;SDS011;5618;51.028;5.234;2022-07-29T04:33:48;1.60;;;1.50;;
11127;SDS011;5618;51.028;5.234;2022-07-29T04:36:13;2.13;;;1.92;;
11127;SDS011;5618;51.028;5.234;2022-07-29T04:38:39;2.03;;;1.85;;
11127;SDS011;5618;51.028;5.234;2022-07-29T04:41:05;2.38;;;1.98;;
11127;SDS011;5618;51.028;5.234;2022-07-29T04:43:32;1.83;;;1.73;;
11127;SDS011;5618;51.028;5.234;2022-07-29T04:45:58;1.70;;;1.50;;
11127;SDS011;5618;51.028;5.234;2022-07-29T04:48:24;1.77;;;1.67;;
11127;SDS011;5618;51.028;5.234;2022-07-29T04:50:50;2.85;;;1.83;;
11127;SDS011;5618;51.028;5.234;2022-07-29T04:53:16;4.28;;;2.03;;
11127;SDS011;5618;51.028;5.234;2022-07-29T04:55:42;1.60;;;1.50;;
11127;SDS011;5618;51.028;5.234;2022-07-29T04:58:07;1.98;;;1.80;;
11127;SDS011;5618;51.028;5.234;2022-07-29T05:00:33;3.47;;;1.85;;
11127;SDS011;5618;51.028;5.234;2022-07-29T05:02:59;3.47;;;1.63;;
11127;SDS011;5618;51.028;5.234;2022-07-29T05:05:25;1.95;;;1.65;;
11127;SDS011;5618;51.028;5.234;2022-07-29T05:07:50;3.22;;;1.65;;
11127;SDS011;5618;51.028;5.234;2022-07-29T05:10:16;1.73;;;1.58;;
11127;SDS011;5618;51.028;5.234;2022-07-29T05:12:42;2.03;;;1.88;;
11127;SDS011;5618;51.028;5.234;2022-07-29T05:15:08;2.72;;;1.75;;
11127;SDS011;5618;51.028;5.234;2022-07-29T05:17:34;2.70;;;1.90;;
11127;SDS011;5618;51.028;5.234;2022-07-29T05:19:59;2.20;;;1.70;;
11127;SDS011;5618;51.028;5.234;2022-07-29T05:22:25;1.95;;;1.77;;
11127;SDS011;5618;51.028;5.234;2022-07-29T05:24:51;2.45;;;1.58;;
11127;SDS011;5618;51.028;5.234;2022-07-29T05:27:17;4.93;;;2.10;;
11127;SDS011;5618;51.028;5.234;2022-07-29T05:29:42;2.60;;;1.88;;
11127;SDS011;5618;51.028;5.234;2022-07-29T05:32:08;2.83;;;1.80;;
11127;SDS011;5618;51.028;5.234;2022-07-29T05:34:34;2.63;;;1.60;;
11127;SDS011;5618;51.028;5.234;2022-07-29T05:36:59;2.20;;;1.92;;
11127;SDS011;5618;51.028;5.234;2022-07-29T05:39:25;4.38;;;1.95;;
11127;SDS011;5618;51.028;5.234;2022-07-29T05:41:51;3.35;;;2.05;;
11127;SDS011;5618;51.028;5.234;2022-07-29T05:44:16;3.35;;;2.20;;
11127;SDS011;5618;51.028;5.234;2022-07-29T05:46:42;2.38;;;2.17;;
11127;SDS011;5618;51.028;5.234;2022-07-29T05:49:07;2.97;;;2.30;;
11127;SDS011;5618;51.028;5.234;2022-07-29T05:51:33;3.00;;;2.15;;
11127;SDS011;5618;51.028;5.234;2022-07-29T05:54:00;2.88;;;2.10;;
11127;SDS011;5618;51.028;5.234;2022-07-29T05:56:25;2.83;;;2.55;;
11127;SDS011;5618;51.028;5.234;2022-07-29T05:58:51;3.05;;;1.90;;
11127;SDS011;5618;51.028;5.234;2022-07-29T06:01:17;2.03;;;1.92;;
11127;SDS011;5618;51.028;5.234;2022-07-29T06:03:43;3.78;;;2.03;;
11127;SDS011;5618;51.028;5.234;2022-07-29T06:06:09;2.13;;;2.00;;
11127;SDS011;5618;51.028;5.234;2022-07-29T06:08:35;2.35;;;1.90;;
11127;SDS011;5618;51.028;5.234;2022-07-29T06:11:01;3.78;;;1.80;;
11127;SDS011;5618;51.028;5.234;2022-07-29T06:13:28;3.58;;;2.30;;
11127;SDS011;5618;51.028;5.234;2022-07-29T06:15:54;2.78;;;2.03;;
11127;SDS011;5618;51.028;5.234;2022-07-29T06:18:19;2.45;;;2.25;;
11127;SDS011;5618;51.028;5.234;2022-07-29T06:20:49;5.30;;;2.25;;
11127;SDS011;5618;51.028;5.234;2022-07-29T06:23:16;2.80;;;2.20;;
11127;SDS011;5618;51.028;5.234;2022-07-29T06:25:42;3.72;;;2.08;;
11127;SDS011;5618;51.028;5.234;2022-07-29T06:28:08;2.17;;;1.98;;
11127;SDS011;5618;51.028;5.234;2022-07-29T06:30:34;3.38;;;2.53;;
11127;SDS011;5618;51.028;5.234;2022-07-29T06:33:00;4.22;;;2.20;;
11127;SDS011;5618;51.028;5.234;2022-07-29T06:35:26;4.07;;;1.85;;
11127;SDS011;5618;51.028;5.234;2022-07-29T06:37:53;2.67;;;2.15;;
11127;SDS011;5618;51.028;5.234;2022-07-29T06:40:18;2.63;;;2.10;;
11127;SDS011;5618;51.028;5.234;2022-07-29T06:43:03;2.47;;;2.28;;
11127;SDS011;5618;51.028;5.234;2022-07-29T06:45:29;3.20;;;1.95;;
11127;SDS011;5618;51.028;5.234;2022-07-29T06:47:54;4.40;;;2.53;;
11127;SDS011;5618;51.028;5.234;2022-07-29T06:50:20;4.00;;;2.40;;
11127;SDS011;5618;51.028;5.234;2022-07-29T06:52:47;2.38;;;2.20;;
11127;SDS011;5618;51.028;5.234;2022-07-29T06:55:12;2.88;;;1.90;;
11127;SDS011;5618;51.028;5.234;2022-07-29T06:57:39;2.70;;;1.90;;
11127;SDS011;5618;51.028;5.234;2022-07-29T07:00:05;2.78;;;2.58;;
11127;SDS011;5618;51.028;5.234;2022-07-29T07:02:31;4.35;;;2.42;;
11127;SDS011;5618;51.028;5.234;2022-07-29T07:04:57;3.00;;;2.00;;
11127;SDS011;5618;51.028;5.234;2022-07-29T07:07:23;2.38;;;2.17;;
11127;SDS011;5618;51.028;5.234;2022-07-29T07:09:49;2.05;;;1.95;;
11127;SDS011;5618;51.028;5.234;2022-07-29T07:12:15;3.92;;;2.35;;
11127;SDS011;5618;51.028;5.234;2022-07-29T07:14:41;5.50;;;2.47;;
11127;SDS011;5618;51.028;5.234;2022-07-29T07:17:06;2.78;;;1.92;;
11127;SDS011;5618;51.028;5.234;2022-07-29T07:19:33;2.97;;;2.30;;
11127;SDS011;5618;51.028;5.234;2022-07-29T07:21:59;3.15;;;2.40;;
11127;SDS011;5618;51.028;5.234;2022-07-29T07:24:24;2.05;;;1.88;;
11127;SDS011;5618;51.028;5.234;2022-07-29T07:26:50;3.22;;;2.53;;
11127;SDS011;5618;51.028;5.234;2022-07-29T07:29:16;2.17;;;1.98;;
11127;SDS011;5618;51.028;5.234;2022-07-29T07:31:42;2.50;;;2.13;;
11127;SDS011;5618;51.028;5.234;2022-07-29T07:34:07;2.17;;;1.98;;
11127;SDS011;5618;51.028;5.234;2022-07-29T07:36:33;2.20;;;2.00;;
11127;SDS011;5618;51.028;5.234;2022-07-29T07:38:59;2.63;;;1.85;;
11127;SDS011;5618;51.028;5.234;2022-07-29T07:41:25;3.13;;;2.08;;
11127;SDS011;5618;51.028;5.234;2022-07-29T07:43:50;3.85;;;2.30;;
11127;SDS011;5618;51.028;5.234;2022-07-29T07:46:16;4.65;;;2.10;;
11127;SDS011;5618;51.028;5.234;2022-07-29T07:48:42;2.40;;;2.20;;
11127;SDS011;5618;51.028;5.234;2022-07-29T07:51:07;2.45;;;2.30;;
11127;SDS011;5618;51.028;5.234;2022-07-29T07:56:55;3.35;;;2.45;;
11127;SDS011;5618;51.028;5.234;2022-07-29T07:59:21;2.58;;;1.95;;
11127;SDS011;5618;51.028;5.234;2022-07-29T08:01:47;3.35;;;2.53;;
11127;SDS011;5618;51.028;5.234;2022-07-29T08:04:12;3.42;;;2.17;;
11127;SDS011;5618;51.028;5.234;2022-07-29T08:06:38;2.15;;;2.05;;
11127;SDS011;5618;51.028;5.234;2022-07-29T08:09:04;2.92;;;2.10;;
11127;SDS011;5618;51.028;5.234;2022-07-29T08:11:30;2.92;;;2.50;;
11127;SDS011;5618;51.028;5.234;2022-07-29T08:13:56;3.92;;;2.70;;
11127;SDS011;5618;51.028;5.234;2022-07-29T08:16:22;2.20;;;2.00;;
11127;SDS011;5618;51.028;5.234;2022-07-29T08:18:50;3.05;;;2.05;;
11127;SDS011;5618;51.028;5.234;2022-07-29T08:21:16;2.90;;;2.03;;
11127;SDS011;5618;51.028;5.234;2022-07-29T08:23:46;3.88;;;2.28;;
11127;SDS011;5618;51.028;5.234;2022-07-29T08:26:14;3.47;;;2.05;;
11127;SDS011;5618;51.028;5.234;2022-07-29T08:28:41;2.20;;;2.00;;
11127;SDS011;5618;51.028;5.234;2022-07-29T08:31:11;2.85;;;2.45;;
11127;SDS011;5618;51.028;5.234;2022-07-29T08:33:37;4.18;;;2.40;;
11127;SDS011;5618;51.028;5.234;2022-07-29T08:36:04;2.60;;;2.15;;
11127;SDS011;5618;51.028;5.234;2022-07-29T08:38:30;2.47;;;2.28;;
11127;SDS011;5618;51.028;5.234;2022-07-29T08:40:56;2.75;;;2.08;;
11127;SDS011;5618;51.028;5.234;2022-07-29T08:43:23;3.33;;;2.05;;
11127;SDS011;5618;51.028;5.234;2022-07-29T08:45:49;2.70;;;2.47;;
11127;SDS011;5618;51.028;5.234;2022-07-29T08:48:17;4.95;;;2.35;;
11127;SDS011;5618;51.028;5.234;2022-07-29T08:50:44;8.88;;;2.50;;
11127;SDS011;5618;51.028;5.234;2022-07-29T08:53:11;2.55;;;2.35;;
11127;SDS011;5618;51.028;5.234;2022-07-29T08:55:40;2.13;;;1.92;;
11127;SDS011;5618;51.028;5.234;2022-07-29T08:58:08;4.38;;;2.80;;
11127;SDS011;5618;51.028;5.234;2022-07-29T09:00:35;4.45;;;1.75;;
11127;SDS011;5618;51.028;5.234;2022-07-29T09:03:02;2.40;;;2.20;;
11127;SDS011;5618;51.028;5.234;2022-07-29T09:05:29;2.00;;;1.85;;
11127;SDS011;5618;51.028;5.234;2022-07-29T09:07:57;2.42;;;1.90;;
11127;SDS011;5618;51.028;5.234;2022-07-29T09:10:23;2.92;;;1.88;;
11127;SDS011;5618;51.028;5.234;2022-07-29T09:12:49;2.83;;;2.10;;
11127;SDS011;5618;51.028;5.234;2022-07-29T09:15:17;4.03;;;1.70;;
11127;SDS011;5618;51.028;5.234;2022-07-29T09:17:47;2.28;;;1.88;;
11127;SDS011;5618;51.028;5.234;2022-07-29T09:20:18;2.47;;;2.28;;
11127;SDS011;5618;51.028;5.234;2022-07-29T09:22:45;2.42;;;2.20;;
11127;SDS011;5618;51.028;5.234;2022-07-29T09:25:14;2.65;;;2.35;;
11127;SDS011;5618;51.028;5.234;2022-07-29T09:28:04;2.20;;;2.00;;
11127;SDS011;5618;51.028;5.234;2022-07-29T09:30:31;2.55;;;1.92;;
11127;SDS011;5618;51.028;5.234;2022-07-29T09:32:58;2.78;;;1.83;;
11127;SDS011;5618;51.028;5.234;2022-07-29T09:35:28;4.00;;;1.90;;
11127;SDS011;5618;51.028;5.234;2022-07-29T09:37:55;1.50;;;1.40;;
11127;SDS011;5618;51.028;5.234;2022-07-29T09:40:22;2.40;;;1.77;;
11127;SDS011;5618;51.028;5.234;2022-07-29T09:42:50;1.88;;;1.77;;
11127;SDS011;5618;51.028;5.234;2022-07-29T09:45:26;4.13;;;1.90;;
11127;SDS011;5618;51.028;5.234;2022-07-29T09:47:57;3.85;;;2.40;;
11127;SDS011;5618;51.028;5.234;2022-07-29T09:50:38;3.03;;;1.67;;
11127;SDS011;5618;51.028;5.234;2022-07-29T09:53:05;2.28;;;1.90;;
11127;SDS011;5618;51.028;5.234;2022-07-29T09:55:30;2.40;;;1.48;;
11127;SDS011;5618;51.028;5.234;2022-07-29T09:58:18;2.15;;;1.48;;
11127;SDS011;5618;51.028;5.234;2022-07-29T10:00:45;6.38;;;2.20;;
11127;SDS011;5618;51.028;5.234;2022-07-29T10:03:12;2.67;;;1.48;;
11127;SDS011;5618;51.028;5.234;2022-07-29T10:05:40;1.88;;;1.75;;
11127;SDS011;5618;51.028;5.234;2022-07-29T10:08:07;2.03;;;1.63;;
11127;SDS011;5618;51.028;5.234;2022-07-29T10:10:38;2.53;;;1.60;;
11127;SDS011;5618;51.028;5.234;2022-07-29T10:13:09;1.58;;;1.48;;
11127;SDS011;5618;51.028;5.234;2022-07-29T10:15:39;2.05;;;1.50;;
11127;SDS011;5618;51.028;5.234;2022-07-29T10:18:08;2.67;;;1.67;;
11127;SDS011;5618;51.028;5.234;2022-07-29T10:20:35;1.90;;;1.27;;
11127;SDS011;5618;51.028;5.234;2022-07-29T10:23:02;4.15;;;1.70;;
11127;SDS011;5618;51.028;5.234;2022-07-29T10:25:28;2.88;;;1.95;;
11127;SDS011;5618;51.028;5.234;2022-07-29T10:27:54;3.85;;;2.10;;
11127;SDS011;5618;51.028;5.234;2022-07-29T10:30:20;1.08;;;1.08;;
11127;SDS011;5618;51.028;5.234;2022-07-29T10:41:34;1.80;;;1.60;;
11127;SDS011;5618;51.028;5.234;2022-07-29T10:44:21;2.53;;;1.65;;
11127;SDS011;5618;51.028;5.234;2022-07-29T10:46:48;1.92;;;1.63;;
11127;SDS011;5618;51.028;5.234;2022-07-29T10:49:22;1.40;;;1.30;;
11127;SDS011;5618;51.028;5.234;2022-07-29T10:54:38;1.23;;;1.13;;
11127;SDS011;5618;51.028;5.234;2022-07-29T11:00:29;1.50;;;1.17;;
11127;SDS011;5618;51.028;5.234;2022-07-29T11:05:07;2.15;;;1.30;;
11127;SDS011;5618;51.028;5.234;2022-07-29T11:07:39;1.65;;;1.48;;
11127;SDS011;5618;51.028;5.234;2022-07-29T11:10:25;1.38;;;1.10;;
11127;SDS011;5618;51.028;5.234;2022-07-29T11:12:50;2.53;;;1.10;;
11127;SDS011;5618;51.028;5.234;2022-07-29T11:15:18;2.38;;;1.50;;
11127;SDS011;5618;51.028;5.234;2022-07-29T11:20:39;2.63;;;1.23;;
11127;SDS011;5618;51.028;5.234;2022-07-29T11:23:18;1.40;;;1.30;;
11127;SDS011;5618;51.028;5.234;2022-07-29T11:25:45;2.08;;;1.33;;
11127;SDS011;5618;51.028;5.234;2022-07-29T11:28:31;1.55;;;1.45;;
11127;SDS011;5618;51.028;5.234;2022-07-29T11:30:58;1.95;;;1.83;;
11127;SDS011;5618;51.028;5.234;2022-07-29T11:33:32;2.30;;;1.52;;
11127;SDS011;5618;51.028;5.234;2022-07-29T11:38:37;3.20;;;1.40;;
11127;SDS011;5618;51.028;5.234;2022-07-29T11:43:48;1.77;;;1.20;;
11127;SDS011;5618;51.028;5.234;2022-07-29T11:47:03;1.70;;;1.25;;
11127;SDS011;5618;51.028;5.234;2022-07-29T11:49:11;3.17;;;1.38;;
11127;SDS011;5618;51.028;5.234;2022-07-29T11:51:37;2.40;;;1.35;;
11127;SDS011;5618;51.028;5.234;2022-07-29T11:54:04;2.15;;;1.17;;
11127;SDS011;5618;51.028;5.234;2022-07-29T11:56:30;2.70;;;1.55;;
11127;SDS011;5618;51.028;5.234;2022-07-29T11:59:07;2.20;;;1.48;;
11127;SDS011;5618;51.028;5.234;2022-07-29T12:01:34;2.75;;;1.70;;
11127;SDS011;5618;51.028;5.234;2022-07-29T12:04:07;2.22;;;1.33;;
11127;SDS011;5618;51.028;5.234;2022-07-29T12:06:35;2.40;;;1.65;;
11127;SDS011;5618;51.028;5.234;2022-07-29T12:09:10;2.30;;;2.00;;
11127;SDS011;5618;51.028;5.234;2022-07-29T12:11:35;1.48;;;1.38;;
11127;SDS011;5618;51.028;5.234;2022-07-29T12:14:01;2.50;;;1.83;;
11127;SDS011;5618;51.028;5.234;2022-07-29T12:16:36;1.42;;;1.17;;
11127;SDS011;5618;51.028;5.234;2022-07-29T12:19:03;4.47;;;2.60;;
11127;SDS011;5618;51.028;5.234;2022-07-29T12:21:29;2.70;;;1.63;;
11127;SDS011;5618;51.028;5.234;2022-07-29T12:24:11;1.88;;;1.50;;
11127;SDS011;5618;51.028;5.234;2022-07-29T12:26:48;1.92;;;1.20;;
11127;SDS011;5618;51.028;5.234;2022-07-29T12:29:18;1.60;;;1.50;;
11127;SDS011;5618;51.028;5.234;2022-07-29T12:31:44;1.52;;;1.30;;
11127;SDS011;5618;51.028;5.234;2022-07-29T12:34:15;2.45;;;1.23;;
11127;SDS011;5618;51.028;5.234;2022-07-29T12:36:42;2.53;;;1.25;;
11127;SDS011;5618;51.028;5.234;2022-07-29T12:39:08;1.30;;;1.20;;
11127;SDS011;5618;51.028;5.234;2022-07-29T12:41:35;2.40;;;1.23;;
11127;SDS011;5618;51.028;5.234;2022-07-29T12:44:01;1.25;;;1.15;;
11127;SDS011;5618;51.028;5.234;2022-07-29T12:46:26;2.83;;;1.30;;
11127;SDS011;5618;51.028;5.234;2022-07-29T12:48:53;1.48;;;1.38;;
11127;SDS011;5618;51.028;5.234;2022-07-29T12:51:33;1.65;;;1.20;;
11127;SDS011;5618;51.028;5.234;2022-07-29T12:54:04;1.15;;;1.05;;
11127;SDS011;5618;51.028;5.234;2022-07-29T12:56:41;2.60;;;1.38;;
11127;SDS011;5618;51.028;5.234;2022-07-29T12:59:12;1.02;;;0.98;;
11127;SDS011;5618;51.028;5.234;2022-07-29T13:01:42;2.45;;;1.02;;
11127;SDS011;5618;51.028;5.234;2022-07-29T13:04:09;0.88;;;0.88;;
11127;SDS011;5618;51.028;5.234;2022-07-29T13:11:35;1.58;;;1.23;;
11127;SDS011;5618;51.028;5.234;2022-07-29T13:17:08;1.90;;;1.10;;
11127;SDS011;5618;51.028;5.234;2022-07-29T13:19:53;1.95;;;1.08;;
11127;SDS011;5618;51.028;5.234;2022-07-29T13:22:43;1.65;;;1.00;;
11127;SDS011;5618;51.028;5.234;2022-07-29T13:25:13;2.65;;;1.30;;
11127;SDS011;5618;51.028;5.234;2022-07-29T13:27:38;2.42;;;1.27;;
11127;SDS011;5618;51.028;5.234;2022-07-29T13:30:08;2.25;;;1.00;;
11127;SDS011;5618;51.028;5.234;2022-07-29T13:32:34;1.92;;;1.30;;
11127;SDS011;5618;51.028;5.234;2022-07-29T13:35:05;1.83;;;1.15;;
11127;SDS011;5618;51.028;5.234;2022-07-29T13:37:33;5.18;;;1.50;;
11127;SDS011;5618;51.028;5.234;2022-07-29T13:40:00;2.40;;;1.55;;
11127;SDS011;5618;51.028;5.234;2022-07-29T13:42:28;3.72;;;1.30;;
11127;SDS011;5618;51.028;5.234;2022-07-29T13:44:53;1.50;;;1.30;;
11127;SDS011;5618;51.028;5.234;2022-07-29T13:47:19;1.58;;;1.48;;
11127;SDS011;5618;51.028;5.234;2022-07-29T13:49:45;2.65;;;1.30;;
11127;SDS011;5618;51.028;5.234;2022-07-29T13:52:11;2.83;;;1.20;;
11127;SDS011;5618;51.028;5.234;2022-07-29T13:54:37;1.08;;;1.05;;
11127;SDS011;5618;51.028;5.234;2022-07-29T13:57:05;3.90;;;1.55;;
11127;SDS011;5618;51.028;5.234;2022-07-29T13:59:31;4.32;;;1.42;;
11127;SDS011;5618;51.028;5.234;2022-07-29T14:01:56;2.15;;;1.02;;
11127;SDS011;5618;51.028;5.234;2022-07-29T14:04:22;4.93;;;1.33;;
11127;SDS011;5618;51.028;5.234;2022-07-29T14:06:49;5.05;;;1.20;;
11127;SDS011;5618;51.028;5.234;2022-07-29T14:09:15;1.42;;;1.08;;
11127;SDS011;5618;51.028;5.234;2022-07-29T14:11:41;3.00;;;1.40;;
11127;SDS011;5618;51.028;5.234;2022-07-29T14:14:06;1.40;;;1.30;;
11127;SDS011;5618;51.028;5.234;2022-07-29T14:16:32;2.90;;;1.48;;
11127;SDS011;5618;51.028;5.234;2022-07-29T14:18:59;1.70;;;1.60;;
11127;SDS011;5618;51.028;5.234;2022-07-29T14:21:25;1.80;;;1.10;;
11127;SDS011;5618;51.028;5.234;2022-07-29T14:23:50;1.73;;;1.27;;
11127;SDS011;5618;51.028;5.234;2022-07-29T14:26:17;1.98;;;1.02;;
11127;SDS011;5618;51.028;5.234;2022-07-29T14:28:43;1.83;;;0.90;;
11127;SDS011;5618;51.028;5.234;2022-07-29T14:31:09;4.30;;;1.40;;
11127;SDS011;5618;51.028;5.234;2022-07-29T14:33:35;2.15;;;1.23;;
11127;SDS011;5618;51.028;5.234;2022-07-29T14:36:01;4.10;;;0.98;;
11127;SDS011;5618;51.028;5.234;2022-07-29T14:38:26;1.75;;;1.08;;
11127;SDS011;5618;51.028;5.234;2022-07-29T14:40:52;2.38;;;1.23;;
11127;SDS011;5618;51.028;5.234;2022-07-29T14:43:18;1.48;;;1.38;;
11127;SDS011;5618;51.028;5.234;2022-07-29T14:45:43;2.80;;;1.40;;
11127;SDS011;5618;51.028;5.234;2022-07-29T14:48:09;1.83;;;1.30;;
11127;SDS011;5618;51.028;5.234;2022-07-29T14:50:36;2.47;;;0.90;;
11127;SDS011;5618;51.028;5.234;2022-07-29T14:53:02;1.50;;;1.30;;
11127;SDS011;5618;51.028;5.234;2022-07-29T14:55:28;3.35;;;1.27;;
11127;SDS011;5618;51.028;5.234;2022-07-29T14:57:54;2.22;;;1.33;;
11127;SDS011;5618;51.028;5.234;2022-07-29T15:00:21;1.27;;;1.00;;
11127;SDS011;5618;51.028;5.234;2022-07-29T15:02:47;1.52;;;1.42;;
11127;SDS011;5618;51.028;5.234;2022-07-29T15:05:13;2.58;;;1.13;;
11127;SDS011;5618;51.028;5.234;2022-07-29T15:07:39;1.08;;;1.08;;
11127;SDS011;5618;51.028;5.234;2022-07-29T15:10:05;1.40;;;0.90;;
11127;SDS011;5618;51.028;5.234;2022-07-29T15:12:31;2.42;;;1.55;;
11127;SDS011;5618;51.028;5.234;2022-07-29T15:14:57;1.10;;;1.02;;
11127;SDS011;5618;51.028;5.234;2022-07-29T15:17:23;1.23;;;0.90;;
11127;SDS011;5618;51.028;5.234;2022-07-29T15:19:49;1.95;;;1.25;;
11127;SDS011;5618;51.028;5.234;2022-07-29T15:22:14;1.92;;;0.85;;
11127;SDS011;5618;51.028;5.234;2022-07-29T15:24:40;2.83;;;1.20;;
11127;SDS011;5618;51.028;5.234;2022-07-29T15:27:06;2.45;;;1.20;;
11127;SDS011;5618;51.028;5.234;2022-07-29T15:29:31;1.95;;;1.23;;
11127;SDS011;5618;51.028;5.234;2022-07-29T15:31:58;2.53;;;1.50;;
11127;SDS011;5618;51.028;5.234;2022-07-29T15:34:23;2.10;;;1.48;;
11127;SDS011;5618;51.028;5.234;2022-07-29T15:36:50;3.42;;;1.20;;
11127;SDS011;5618;51.028;5.234;2022-07-29T15:39:16;1.30;;;1.23;;
11127;SDS011;5618;51.028;5.234;2022-07-29T15:41:42;1.75;;;1.45;;
11127;SDS011;5618;51.028;5.234;2022-07-29T15:44:08;8.10;;;1.55;;
11127;SDS011;5618;51.028;5.234;2022-07-29T15:46:33;1.52;;;1.08;;
11127;SDS011;5618;51.028;5.234;2022-07-29T15:49:17;1.88;;;1.20;;
11127;SDS011;5618;51.028;5.234;2022-07-29T15:51:43;1.70;;;1.10;;
11127;SDS011;5618;51.028;5.234;2022-07-29T15:54:09;3.38;;;1.25;;
11127;SDS011;5618;51.028;5.234;2022-07-29T15:56:35;1.15;;;1.05;;
11127;SDS011;5618;51.028;5.234;2022-07-29T15:59:00;2.38;;;1.05;;